createdAt,value
2018-06-20T00:02:24.311Z,18.90
2018-06-20T00:04:52.413Z,18.90
2018-06-20T00:07:20.452Z,18.80
2018-06-20T00:09:48.423Z,18.80
2018-06-20T00:14:44.286Z,18.80
2018-06-20T00:19:40.172Z,18.80
2018-06-20T00:22:09.283Z,18.90
2018-06-20T00:27:05.844Z,18.90
2018-06-20T00:29:33.838Z,19.00
2018-06-20T00:32:01.937Z,19.00
2018-06-20T00:34:30.941Z,19.00
2018-06-20T00:36:58.996Z,19.00
2018-06-20T00:39:27.021Z,19.00
2018-06-20T00:41:55.067Z,18.90
2018-06-20T00:44:23.104Z,18.90
2018-06-20T00:46:51.122Z,18.80
2018-06-20T00:49:19.128Z,18.80
2018-06-20T00:51:47.212Z,18.60
2018-06-20T00:54:15.210Z,18.60
2018-06-20T00:56:43.307Z,18.60
2018-06-20T00:59:11.296Z,18.50
2018-06-20T01:01:39.325Z,18.50
2018-06-20T01:06:35.209Z,18.40
2018-06-20T01:09:03.182Z,18.40
2018-06-20T01:14:03.026Z,18.30
2018-06-20T01:21:27.289Z,18.20
2018-06-20T01:23:55.774Z,18.20
2018-06-20T01:28:51.648Z,18.20
2018-06-20T01:31:19.641Z,18.10
2018-06-20T01:33:47.694Z,18.10
2018-06-20T01:36:15.712Z,18.10
2018-06-20T01:38:43.823Z,18.10
2018-06-20T01:41:11.867Z,18.10
2018-06-20T01:43:39.966Z,18.10
2018-06-20T01:46:07.967Z,18.10
2018-06-20T01:48:36.005Z,18.10
2018-06-20T01:51:03.998Z,18.10
2018-06-20T01:53:32.092Z,18.10
2018-06-20T01:56:00.088Z,18.10
2018-06-20T01:58:28.130Z,18.20
2018-06-20T02:00:56.131Z,18.30
2018-06-20T02:03:24.115Z,18.30
2018-06-20T02:10:48.880Z,18.30
2018-06-20T02:15:44.747Z,18.40
2018-06-20T02:18:12.893Z,18.40
2018-06-20T02:20:40.948Z,18.40
2018-06-20T02:23:08.983Z,18.30
2018-06-20T02:25:36.980Z,18.30
2018-06-20T02:30:32.831Z,18.30
2018-06-20T02:35:28.823Z,18.20
2018-06-20T02:37:56.783Z,18.20
2018-06-20T02:40:24.818Z,18.10
2018-06-20T02:42:52.880Z,18.10
2018-06-20T02:45:21.052Z,18.20
2018-06-20T02:47:49.140Z,18.20
2018-06-20T02:50:17.106Z,18.20
2018-06-20T02:52:45.164Z,18.20
2018-06-20T02:55:13.199Z,18.20
2018-06-20T02:57:41.252Z,18.20
2018-06-20T03:05:05.072Z,18.20
2018-06-20T03:07:33.088Z,18.10
2018-06-20T03:12:29.103Z,18.10
2018-06-20T03:14:57.140Z,18.20
2018-06-20T03:19:53.000Z,18.20
2018-06-20T03:24:49.007Z,18.20
2018-06-20T03:27:17.081Z,18.20
2018-06-20T03:29:45.038Z,18.30
2018-06-20T03:34:40.984Z,18.30
2018-06-20T03:37:09.011Z,18.30
2018-06-20T03:39:37.052Z,18.30
2018-06-20T03:42:05.091Z,18.40
2018-06-20T03:44:33.031Z,18.40
2018-06-20T03:49:28.911Z,18.40
2018-06-20T03:51:57.041Z,18.40
2018-06-20T03:54:25.043Z,18.50
2018-06-20T03:56:53.067Z,18.50
2018-06-20T03:59:21.102Z,18.60
2018-06-20T04:01:49.111Z,18.70
2018-06-20T04:06:44.989Z,18.80
2018-06-20T04:09:13.508Z,18.80
2018-06-20T04:11:42.730Z,18.90
2018-06-20T04:14:11.204Z,18.90
2018-06-20T04:16:39.259Z,18.90
2018-06-20T04:21:35.240Z,19.00
2018-06-20T04:24:03.292Z,19.00
2018-06-20T04:26:31.340Z,19.10
2018-06-20T04:28:59.354Z,19.20
2018-06-20T04:31:27.851Z,19.20
2018-06-20T04:33:55.835Z,19.30
2018-06-20T04:36:23.835Z,19.30
2018-06-20T04:41:19.618Z,19.30
2018-06-20T04:43:47.711Z,19.30
2018-06-20T04:46:15.767Z,19.40
2018-06-20T04:51:11.619Z,19.30
2018-06-20T04:53:39.606Z,19.40
2018-06-20T04:58:35.472Z,19.60
2018-06-20T05:03:31.431Z,19.70
2018-06-20T05:08:27.311Z,19.90
2018-06-20T05:10:55.473Z,20.00
2018-06-20T05:13:23.564Z,20.00
2018-06-20T05:18:22.338Z,20.20
2018-06-20T05:20:50.426Z,20.20
2018-06-20T05:23:18.408Z,20.30
2018-06-20T05:25:46.443Z,20.30
2018-06-20T05:28:14.883Z,20.40
2018-06-20T05:30:47.575Z,20.40
2018-06-20T05:33:15.698Z,20.40
2018-06-20T05:35:44.319Z,20.50
2018-06-20T05:40:41.800Z,20.60
2018-06-20T05:43:09.747Z,20.70
2018-06-20T05:45:37.796Z,20.80
2018-06-20T05:48:05.779Z,20.80
2018-06-20T05:50:33.855Z,20.90
2018-06-20T05:55:29.771Z,21.00
2018-06-20T05:57:57.804Z,21.10
2018-06-20T06:02:54.211Z,21.30
2018-06-20T06:05:22.503Z,21.30
2018-06-20T06:07:50.567Z,21.50
2018-06-20T06:10:19.112Z,21.50
2018-06-20T06:12:48.119Z,21.60
2018-06-20T06:15:16.126Z,21.70
2018-06-20T06:17:45.131Z,21.80
2018-06-20T06:20:13.346Z,21.90
2018-06-20T06:22:41.476Z,22.00
2018-06-20T06:25:09.747Z,22.10
2018-06-20T06:27:37.811Z,22.20
2018-06-20T06:30:06.295Z,22.30
2018-06-20T06:32:34.399Z,22.40
2018-06-20T06:35:02.693Z,22.50
2018-06-20T06:37:30.844Z,22.60
2018-06-20T06:39:58.989Z,22.80
2018-06-20T06:42:27.048Z,22.90
2018-06-20T06:44:55.120Z,23.10
2018-06-20T06:47:23.266Z,23.20
2018-06-20T06:49:51.693Z,23.40
2018-06-20T06:54:48.380Z,23.80
2018-06-20T06:57:16.869Z,23.90
2018-06-20T07:02:14.403Z,24.20
2018-06-20T07:04:42.604Z,24.20
2018-06-20T07:07:10.643Z,24.20
2018-06-20T07:12:06.595Z,24.30
2018-06-20T07:17:02.796Z,24.60
2018-06-20T07:19:31.014Z,24.70
2018-06-20T07:21:59.104Z,24.70
2018-06-20T07:26:55.516Z,25.10
2018-06-20T07:29:23.473Z,25.20
2018-06-20T07:31:51.475Z,25.40
2018-06-20T07:36:47.399Z,25.80
2018-06-20T07:39:16.534Z,25.90
2018-06-20T07:41:44.685Z,25.90
2018-06-20T07:44:12.839Z,26.00
2018-06-20T07:46:40.869Z,26.10
2018-06-20T07:49:10.011Z,26.20
2018-06-20T07:51:38.051Z,26.30
2018-06-20T07:54:06.095Z,26.40
2018-06-20T07:56:34.163Z,26.40
2018-06-20T08:01:47.134Z,26.50
2018-06-20T08:06:54.127Z,26.90
2018-06-20T08:09:27.627Z,27.00
2018-06-20T08:12:01.328Z,27.20
2018-06-20T08:14:35.235Z,27.30
2018-06-20T08:17:15.464Z,27.40
2018-06-20T08:19:47.818Z,27.60
2018-06-20T08:22:18.152Z,27.60
2018-06-20T08:25:06.115Z,27.80
2018-06-20T08:27:35.118Z,27.80
2018-06-20T08:30:04.435Z,27.50
2018-06-20T08:32:33.447Z,27.50
2018-06-20T08:35:01.734Z,27.70
2018-06-20T08:37:29.754Z,27.60
2018-06-20T08:39:58.322Z,27.50
2018-06-20T08:42:26.403Z,27.70
2018-06-20T08:44:54.792Z,27.80
2018-06-20T08:47:22.962Z,27.80
2018-06-20T08:49:50.929Z,28.00
2018-06-20T08:52:19.036Z,28.00
2018-06-20T08:54:47.148Z,28.10
2018-06-20T08:57:15.121Z,28.20
2018-06-20T08:59:43.145Z,28.10
2018-06-20T09:02:11.154Z,28.20
2018-06-20T09:04:44.790Z,28.20
2018-06-20T09:08:17.206Z,28.10
2018-06-20T09:10:51.511Z,28.00
2018-06-20T09:13:25.232Z,27.60
2018-06-20T09:15:58.955Z,27.60
2018-06-20T09:18:32.570Z,27.70
2018-06-20T09:21:00.598Z,27.90
2018-06-20T09:25:56.468Z,28.50
2018-06-20T09:28:24.422Z,28.60
2018-06-20T09:30:52.440Z,28.70
2018-06-20T09:33:20.431Z,28.40
2018-06-20T09:35:49.319Z,28.40
2018-06-20T09:48:08.710Z,28.70
2018-06-20T09:53:10.336Z,29.10
2018-06-20T09:55:38.395Z,29.40
2018-06-20T10:00:39.702Z,29.70
2018-06-20T10:03:13.171Z,29.90
2018-06-20T10:05:46.818Z,30.00
2018-06-20T10:10:53.631Z,29.80
2018-06-20T10:15:52.233Z,29.60
2018-06-20T10:18:20.568Z,29.50
2018-06-20T10:20:48.660Z,29.40
2018-06-20T10:23:17.039Z,29.40
2018-06-20T10:25:45.033Z,29.40
2018-06-20T10:28:13.113Z,29.20
2018-06-20T10:30:41.336Z,28.90
2018-06-20T10:33:09.400Z,28.60
2018-06-20T10:35:37.476Z,28.50
2018-06-20T10:38:05.856Z,28.50
2018-06-20T10:40:33.948Z,28.70
2018-06-20T10:43:01.926Z,28.70
2018-06-20T10:45:35.565Z,28.50
2018-06-20T10:48:09.159Z,28.40
2018-06-20T10:50:37.115Z,28.50
2018-06-20T10:53:05.252Z,28.80
2018-06-20T10:55:33.356Z,29.30
2018-06-20T10:58:06.898Z,29.80
2018-06-20T11:04:17.032Z,30.30
2018-06-20T11:06:50.775Z,30.20
2018-06-20T11:09:25.383Z,30.00
2018-06-20T11:11:59.090Z,29.90
2018-06-20T11:14:27.194Z,29.80
2018-06-20T11:16:55.244Z,29.90
2018-06-20T11:19:23.215Z,29.80
2018-06-20T11:21:51.903Z,29.90
2018-06-20T11:24:19.959Z,29.90
2018-06-20T11:26:47.920Z,30.10
2018-06-20T11:29:16.104Z,29.90
2018-06-20T11:31:44.466Z,29.90
2018-06-20T11:34:12.731Z,30.00
2018-06-20T11:36:40.892Z,29.80
2018-06-20T11:39:10.841Z,29.90
2018-06-20T11:41:38.902Z,29.80
2018-06-20T11:44:06.855Z,29.30
2018-06-20T11:46:41.392Z,29.10
2018-06-20T11:49:09.410Z,29.20
2018-06-20T11:51:37.486Z,29.40
2018-06-20T11:54:07.729Z,29.60
2018-06-20T11:56:35.950Z,29.90
2018-06-20T11:59:09.440Z,30.20
2018-06-20T12:01:43.143Z,30.30
2018-06-20T12:04:16.703Z,30.30
2018-06-20T12:06:50.255Z,30.30
2018-06-20T12:09:23.714Z,30.10
2018-06-20T12:11:57.314Z,29.90
2018-06-20T12:14:31.242Z,29.90
2018-06-20T12:16:58.735Z,29.70
2018-06-20T12:19:32.403Z,29.50
2018-06-20T12:22:06.100Z,29.50
2018-06-20T12:24:39.928Z,29.60
2018-06-20T12:27:13.506Z,29.80
2018-06-20T12:29:48.111Z,29.80
2018-06-20T12:32:21.811Z,29.60
2018-06-20T12:34:55.568Z,29.60
2018-06-20T12:37:29.057Z,29.80
2018-06-20T12:40:04.355Z,29.90
2018-06-20T12:42:38.157Z,29.80
2018-06-20T12:45:08.170Z,29.40
2018-06-20T12:47:41.899Z,29.30
2018-06-20T12:50:16.575Z,29.30
2018-06-20T12:55:12.911Z,29.50
2018-06-20T12:57:41.496Z,29.70
2018-06-20T13:00:09.535Z,29.80
2018-06-20T13:02:37.520Z,30.10
2018-06-20T13:05:05.618Z,30.30
2018-06-20T13:07:34.655Z,30.70
2018-06-20T13:10:02.699Z,31.00
2018-06-20T13:12:30.676Z,30.90
2018-06-20T13:19:54.931Z,30.90
2018-06-20T13:24:50.936Z,31.00
2018-06-20T13:27:24.637Z,30.80
2018-06-20T13:29:58.300Z,30.70
2018-06-20T13:32:31.996Z,30.80
2018-06-20T13:35:06.527Z,31.00
2018-06-20T13:37:40.127Z,31.10
2018-06-20T13:40:13.632Z,30.90
2018-06-20T13:42:47.330Z,30.70
2018-06-20T13:45:21.188Z,30.90
2018-06-20T13:47:54.991Z,30.80
2018-06-20T13:50:23.144Z,30.70
2018-06-20T13:57:47.342Z,31.30
2018-06-20T14:00:15.377Z,31.30
2018-06-20T14:02:43.819Z,31.30
2018-06-20T14:05:12.964Z,30.90
2018-06-20T14:07:41.177Z,30.70
2018-06-20T14:12:37.431Z,30.50
2018-06-20T14:15:05.503Z,30.60
2018-06-20T14:17:34.305Z,30.90
2018-06-20T14:20:07.885Z,31.10
2018-06-20T14:22:36.034Z,31.40
2018-06-20T14:27:32.570Z,31.40
2018-06-20T14:30:00.956Z,31.10
2018-06-20T14:32:34.418Z,31.00
2018-06-20T14:35:07.915Z,31.00
2018-06-20T14:37:41.539Z,30.90
2018-06-20T14:40:15.157Z,31.00
2018-06-20T14:42:48.730Z,31.70
2018-06-20T14:45:22.420Z,32.10
2018-06-20T14:47:50.468Z,32.10
2018-06-20T14:50:18.619Z,32.00
2018-06-20T14:52:46.742Z,31.80
2018-06-20T14:55:14.718Z,32.10
2018-06-20T14:57:42.836Z,32.50
2018-06-20T15:00:10.963Z,32.50
2018-06-20T15:02:39.139Z,32.80
2018-06-20T15:05:07.485Z,32.90
2018-06-20T15:07:35.595Z,32.90
2018-06-20T15:10:03.922Z,33.00
2018-06-20T15:12:32.178Z,32.90
2018-06-20T15:15:00.457Z,32.70
2018-06-20T15:17:29.770Z,32.00
2018-06-20T15:19:58.388Z,31.30
2018-06-20T15:22:27.515Z,31.30
2018-06-20T15:24:55.647Z,31.90
2018-06-20T15:27:29.124Z,32.30
2018-06-20T15:30:03.659Z,32.80
2018-06-20T15:32:37.321Z,33.20
2018-06-20T15:35:10.851Z,32.80
2018-06-20T15:37:44.436Z,32.80
2018-06-20T15:40:12.872Z,33.10
2018-06-20T15:42:41.027Z,34.00
2018-06-20T15:45:09.016Z,35.10
2018-06-20T15:47:37.111Z,36.40
2018-06-20T15:50:05.847Z,37.60
2018-06-20T15:52:34.115Z,39.20
2018-06-20T15:55:02.337Z,40.20
2018-06-20T15:59:58.607Z,38.00
2018-06-20T16:02:26.602Z,38.00
2018-06-20T16:07:23.528Z,39.20
2018-06-20T16:09:57.932Z,39.20
2018-06-20T16:12:26.475Z,40.30
2018-06-20T16:14:54.960Z,41.30
2018-06-20T16:17:23.120Z,42.40
2018-06-20T16:19:56.838Z,43.00
2018-06-20T16:22:30.490Z,43.30
2018-06-20T16:25:04.118Z,43.60
2018-06-20T16:28:41.835Z,44.00
2018-06-20T16:31:09.798Z,43.90
2018-06-20T16:33:41.090Z,43.40
2018-06-20T16:36:09.633Z,42.90
2018-06-20T16:38:38.853Z,42.00
2018-06-20T16:41:06.873Z,41.40
2018-06-20T16:43:34.934Z,42.00
2018-06-20T16:46:02.973Z,41.90
2018-06-20T16:50:58.966Z,42.60
2018-06-20T16:53:27.135Z,43.10
2018-06-20T16:55:56.771Z,43.60
2018-06-20T16:58:24.927Z,43.80
2018-06-20T17:03:25.125Z,42.10
2018-06-20T17:05:53.087Z,41.90
2018-06-20T17:08:21.780Z,42.20
2018-06-20T17:10:49.868Z,42.60
2018-06-20T17:16:54.690Z,42.00
2018-06-20T17:19:28.617Z,41.70
2018-06-20T17:22:02.196Z,41.50
2018-06-20T17:27:03.590Z,42.30
2018-06-20T17:29:31.647Z,41.80
2018-06-20T17:31:59.816Z,41.00
2018-06-20T17:34:27.767Z,41.20
2018-06-20T17:36:55.933Z,40.70
2018-06-20T17:39:24.728Z,40.00
2018-06-20T17:41:52.739Z,40.10
2018-06-20T17:44:20.780Z,39.40
2018-06-20T17:51:44.745Z,39.40
2018-06-20T17:54:12.755Z,39.40
2018-06-20T17:56:42.348Z,40.00
2018-06-20T18:01:38.917Z,40.80
2018-06-20T18:04:06.952Z,40.70
2018-06-20T18:06:40.568Z,40.20
2018-06-20T18:09:14.170Z,40.10
2018-06-20T18:11:48.273Z,40.00
2018-06-20T18:14:22.004Z,39.90
2018-06-20T18:16:56.762Z,39.30
2018-06-20T18:19:25.149Z,39.00
2018-06-20T18:21:53.712Z,38.90
2018-06-20T18:24:22.323Z,38.30
2018-06-20T18:26:50.810Z,37.70
2018-06-20T18:29:19.125Z,37.40
2018-06-20T18:31:47.366Z,36.70
2018-06-20T18:34:15.523Z,36.70
2018-06-20T18:36:44.041Z,36.70
2018-06-20T18:39:12.492Z,36.50
2018-06-20T18:41:40.562Z,36.30
2018-06-20T18:44:08.843Z,35.90
2018-06-20T18:46:37.182Z,35.20
2018-06-20T18:49:06.605Z,34.10
2018-06-20T18:51:34.602Z,33.00
2018-06-20T18:54:02.950Z,32.00
2018-06-20T18:59:06.625Z,30.20
2018-06-20T19:01:40.151Z,29.40
2018-06-20T19:04:14.011Z,28.90
2018-06-20T19:06:47.732Z,28.50
2018-06-20T19:09:19.175Z,28.30
2018-06-20T19:11:47.286Z,28.00
2018-06-20T19:14:15.485Z,27.60
2018-06-20T19:16:43.643Z,27.40
2018-06-20T19:19:12.097Z,27.10
2018-06-20T19:21:40.242Z,26.90
2018-06-20T19:24:08.251Z,26.80
2018-06-20T19:26:36.415Z,26.60
2018-06-20T19:29:04.760Z,26.50
2018-06-20T19:31:32.911Z,26.30
2018-06-20T19:34:00.927Z,26.20
2018-06-20T19:36:28.898Z,26.00
2018-06-20T19:38:57.048Z,25.90
2018-06-20T19:41:25.109Z,25.80
2018-06-20T19:43:58.720Z,25.80
2018-06-20T19:46:26.748Z,25.60
2018-06-20T19:48:54.939Z,25.50
2018-06-20T19:51:24.275Z,25.40
2018-06-20T19:53:52.502Z,25.30
2018-06-20T19:56:20.570Z,25.30
2018-06-20T19:58:48.925Z,25.20
2018-06-20T20:01:17.208Z,25.20
2018-06-20T20:03:45.397Z,25.10
2018-06-20T20:06:13.407Z,25.00
2018-06-20T20:11:10.041Z,24.90
2018-06-20T20:13:39.207Z,24.80
2018-06-20T20:16:07.416Z,24.70
2018-06-20T20:18:35.415Z,24.60
2018-06-20T20:21:03.947Z,24.60
2018-06-20T20:23:32.138Z,24.50
2018-06-20T20:26:00.008Z,24.40
2018-06-20T20:28:27.985Z,24.40
2018-06-20T20:30:56.250Z,24.40
2018-06-20T20:33:24.473Z,24.30
2018-06-20T20:35:52.518Z,24.30
2018-06-20T20:38:20.771Z,24.30
2018-06-20T20:40:48.874Z,24.40
2018-06-20T20:43:17.429Z,24.30
2018-06-20T20:45:46.116Z,24.30
2018-06-20T20:48:14.723Z,24.20
2018-06-20T20:50:43.201Z,24.20
2018-06-20T20:53:11.492Z,24.20
2018-06-20T20:55:39.515Z,24.20
2018-06-20T20:58:07.684Z,24.20
2018-06-20T21:00:35.937Z,24.20
2018-06-20T21:03:04.071Z,24.20
2018-06-20T21:10:29.047Z,24.10
2018-06-20T21:12:57.031Z,24.20
2018-06-20T21:15:26.147Z,24.10
2018-06-20T21:17:54.227Z,24.10
2018-06-20T21:20:22.251Z,24.10
2018-06-20T21:22:50.427Z,24.00
2018-06-20T21:25:18.666Z,24.00
2018-06-20T21:27:46.817Z,23.90
2018-06-20T21:32:42.749Z,23.80
2018-06-20T21:35:10.734Z,23.80
2018-06-20T21:37:38.796Z,23.80
2018-06-20T21:40:08.995Z,23.70
2018-06-20T21:42:37.011Z,23.60
2018-06-20T21:47:32.923Z,23.50
2018-06-20T21:50:01.025Z,23.40
2018-06-20T21:52:29.219Z,23.40
2018-06-20T21:54:57.467Z,23.30
2018-06-20T21:57:25.777Z,23.30
2018-06-20T21:59:54.442Z,23.20
2018-06-20T22:02:22.880Z,23.10
2018-06-20T22:04:50.913Z,23.10
2018-06-20T22:09:47.316Z,22.90
2018-06-20T22:12:15.384Z,22.90
2018-06-20T22:14:43.623Z,22.80
2018-06-20T22:17:11.660Z,22.70
2018-06-20T22:19:40.059Z,22.60
2018-06-20T22:22:09.895Z,22.60
2018-06-20T22:24:38.004Z,22.50
2018-06-20T22:27:06.653Z,22.40
2018-06-20T22:29:34.641Z,22.50
2018-06-20T22:32:02.686Z,22.50
2018-06-20T22:34:30.760Z,22.50
2018-06-20T22:36:58.784Z,22.50
2018-06-20T22:39:26.891Z,22.40
2018-06-20T22:41:54.938Z,22.40
2018-06-20T22:46:50.859Z,22.20
2018-06-20T22:49:19.308Z,22.10
2018-06-20T22:51:47.274Z,22.10
2018-06-20T22:56:43.263Z,22.00
2018-06-20T22:59:11.207Z,22.00
2018-06-20T23:01:39.233Z,21.90
2018-06-20T23:04:07.182Z,21.90
2018-06-20T23:09:03.580Z,21.80
2018-06-20T23:11:37.964Z,21.70
2018-06-20T23:14:05.983Z,21.70
2018-06-20T23:16:35.897Z,21.60
2018-06-20T23:19:05.039Z,21.50
2018-06-20T23:21:33.166Z,21.50
2018-06-20T23:24:01.436Z,21.50
2018-06-20T23:26:29.497Z,21.40
2018-06-20T23:28:58.014Z,21.40
2018-06-20T23:31:26.102Z,21.30
2018-06-20T23:33:54.208Z,21.30
2018-06-20T23:36:22.483Z,21.20
2018-06-20T23:38:50.511Z,21.20
2018-06-20T23:43:46.768Z,21.10
2018-06-20T23:48:42.795Z,21.00
2018-06-20T23:51:10.819Z,21.00
2018-06-20T23:53:38.863Z,20.90
2018-06-20T23:56:06.948Z,20.90
2018-06-20T23:58:34.983Z,20.90
